CheckWX is a tool to help pilots better visualize weather data.  It is not intended as a substitute for an official pre-flight weather briefing.

13:18:27 UTC

EBBR TAF
Brussels Airport
Brussels, Belgium
TAF EBBR 131120Z 1312/1418 29015G26KT 9000 BKN015 TEMPO 1312/1315 4000 RADZ SHRA BKN008TCU BECMG 1315/1317 24012KT PROB30 TEMPO 1404/1407 4500 SHRA PROB30 TEMPO 1411/1415 4500 SHRA

Dec-13@
12:00 UTC

Dec-13 @ 12:00 UTC

Dec-13@
15:00 UTC

Dec-13 @ 15:00 UTC

TAF EBBR 131120Z 1312/1418 29015G26KT 9000 BKN015
Wind
  • 290° at 15 KTS
  • {Gusting to 26 KTS
Cloud Levels
  • Broken at 1,500' AGL

Dec-13@
12:00 UTC

Dec-13 @ 12:00 UTC

Dec-13@
15:00 UTC

Dec-13 @ 15:00 UTC

TEMPO 1312/1315 4000 RADZ SHRA BKN008TCU

Temporary

Temporary Changes expected for less than half the time period

Conditions
Rain, Drizzle, Rain
Cloud Levels
  • Broken at 800' AGL

Dec-13@
15:00 UTC

Dec-13 @ 15:00 UTC

Dec-14@
18:00 UTC

Dec-14 @ 18:00 UTC

BECMG 1315/1317 24012KT

Becoming

Becoming Conditions expected by Fri, Dec 13, 2019 @ 17:00 UTC

Wind
  • 240° at 12 KTS
Cloud Levels
  • Broken at 1,500' AGL

Dec-14@
04:00 UTC

Dec-14 @ 04:00 UTC

Dec-14@
07:00 UTC

Dec-14 @ 07:00 UTC

PROB30 TEMPO 1404/1407 4500 SHRA

Temporary - 30% Likelihood

Temporary - 30% Likelihood during this time.

Conditions
Rain

Dec-14@
11:00 UTC

Dec-14 @ 11:00 UTC

Dec-14@
15:00 UTC

Dec-14 @ 15:00 UTC

PROB30 TEMPO 1411/1415 4500 SHRA

Temporary - 30% Likelihood

Temporary - 30% Likelihood during this time.

Conditions
Rain